createdAt,value
2022-10-25T00:01:29.728Z,84.37
2022-10-25T00:03:57.954Z,83.03
2022-10-25T00:06:25.823Z,83.11
2022-10-25T00:08:53.617Z,84.07
2022-10-25T00:11:25.678Z,83.87
2022-10-25T00:13:55.707Z,83.55
2022-10-25T00:16:29.954Z,85.22
2022-10-25T00:18:57.403Z,88.13
2022-10-25T00:21:25.115Z,89.58
2022-10-25T00:23:53.553Z,89.29
2022-10-25T00:26:21.389Z,89.82
2022-10-25T00:28:49.233Z,88.60
2022-10-25T00:31:18.495Z,90.11
2022-10-25T00:33:46.379Z,90.61
2022-10-25T00:36:24.778Z,89.89
2022-10-25T00:38:53.460Z,89.59
2022-10-25T00:41:27.559Z,89.46
2022-10-25T00:44:16.784Z,89.18
2022-10-25T00:46:45.650Z,88.62
2022-10-25T00:49:20.410Z,87.29
2022-10-25T00:51:58.108Z,86.25
2022-10-25T00:54:34.238Z,85.59
2022-10-25T00:57:14.973Z,87.28
2022-10-25T00:59:44.047Z,87.24
2022-10-25T01:02:12.813Z,86.91
2022-10-25T01:04:41.273Z,84.88
2022-10-25T01:07:08.726Z,80.99
2022-10-25T01:09:38.439Z,80.91
2022-10-25T01:12:06.307Z,83.57
2022-10-25T01:14:43.315Z,86.90
2022-10-25T01:17:19.982Z,88.54
2022-10-25T01:20:11.071Z,89.22
2022-10-25T01:22:56.815Z,90.47
2022-10-25T01:26:08.803Z,90.67
2022-10-25T01:29:17.183Z,91.42
2022-10-25T01:32:32.664Z,91.77
2022-10-25T01:35:53.351Z,91.17
2022-10-25T01:38:33.070Z,89.75
2022-10-25T01:41:50.126Z,91.39
2022-10-25T01:45:03.044Z,91.28
2022-10-25T01:47:39.743Z,91.02
2022-10-25T01:50:25.323Z,91.50
2022-10-25T01:55:24.921Z,90.49
2022-10-25T01:58:00.349Z,90.29
2022-10-25T02:00:28.699Z,90.98
2022-10-25T02:03:21.450Z,90.60
2022-10-25T02:06:24.010Z,90.33
2022-10-25T02:09:03.156Z,90.59
2022-10-25T02:11:32.889Z,90.35
2022-10-25T02:14:26.524Z,90.18
2022-10-25T02:17:02.431Z,91.45
2022-10-25T02:19:59.640Z,92.00
2022-10-25T02:22:31.107Z,92.46
2022-10-25T02:24:59.241Z,91.67
2022-10-25T02:27:27.253Z,91.79
2022-10-25T02:29:55.544Z,90.66
2022-10-25T02:32:23.319Z,91.58
2022-10-25T02:34:51.321Z,91.73
2022-10-25T02:37:19.262Z,93.14
2022-10-25T02:39:46.907Z,93.40
2022-10-25T02:42:14.361Z,92.54
2022-10-25T02:44:41.756Z,92.28
2022-10-25T02:47:09.341Z,91.81
2022-10-25T02:49:36.779Z,93.32
2022-10-25T02:52:04.361Z,93.20
2022-10-25T02:54:31.820Z,93.48
2022-10-25T02:56:59.202Z,93.06
2022-10-25T02:59:26.751Z,93.11
2022-10-25T03:01:54.315Z,92.65
2022-10-25T03:04:21.898Z,93.79
2022-10-25T03:06:49.403Z,94.71
2022-10-25T03:09:16.842Z,95.48
2022-10-25T03:11:44.311Z,94.48
2022-10-25T03:14:11.716Z,93.29
2022-10-25T03:16:39.181Z,92.12
2022-10-25T03:19:06.637Z,92.03
2022-10-25T03:21:36.596Z,92.14
2022-10-25T03:24:07.390Z,92.34
2022-10-25T03:26:34.803Z,93.02
2022-10-25T03:29:02.223Z,93.02
2022-10-25T03:31:29.802Z,93.11
2022-10-25T03:33:57.267Z,94.16
2022-10-25T03:36:24.661Z,94.86
2022-10-25T03:38:52.090Z,95.74
2022-10-25T03:41:19.614Z,96.31
2022-10-25T03:43:46.979Z,95.20
2022-10-25T03:46:14.430Z,94.65
2022-10-25T03:48:41.879Z,96.13
2022-10-25T03:51:09.473Z,94.20
2022-10-25T03:53:36.898Z,94.66
2022-10-25T03:56:04.583Z,95.08
2022-10-25T03:58:32.094Z,96.06
2022-10-25T04:01:00.021Z,94.86
2022-10-25T04:03:27.535Z,95.79
2022-10-25T04:05:54.916Z,96.53
2022-10-25T04:08:22.443Z,97.68
2022-10-25T04:10:49.804Z,98.21
2022-10-25T04:13:17.298Z,97.76
2022-10-25T04:15:44.820Z,97.31
2022-10-25T04:18:12.205Z,97.60
2022-10-25T04:20:39.675Z,96.91
2022-10-25T04:23:07.114Z,97.76
2022-10-25T04:25:34.694Z,98.16
2022-10-25T04:28:02.299Z,98.38
2022-10-25T04:30:29.877Z,98.64
2022-10-25T04:32:59.942Z,98.51
2022-10-25T04:35:27.453Z,97.17
2022-10-25T04:37:58.374Z,97.15
2022-10-25T04:40:26.070Z,95.77
2022-10-25T04:42:53.472Z,96.02
2022-10-25T04:45:20.978Z,96.36
2022-10-25T04:47:48.647Z,96.53
2022-10-25T04:50:16.231Z,97.06
2022-10-25T04:52:43.828Z,96.46
2022-10-25T04:55:11.534Z,95.62
2022-10-25T04:57:38.944Z,95.46
2022-10-25T05:00:06.933Z,95.83
2022-10-25T05:02:34.381Z,95.77
2022-10-25T05:05:01.902Z,95.53
2022-10-25T05:07:29.300Z,93.72
2022-10-25T05:09:56.738Z,90.15
2022-10-25T05:12:24.634Z,93.46
2022-10-25T05:14:52.188Z,95.44
2022-10-25T05:17:19.641Z,95.66
2022-10-25T05:19:48.522Z,93.92
2022-10-25T05:22:15.903Z,91.16
2022-10-25T05:24:43.374Z,91.71
2022-10-25T05:27:10.794Z,93.27
2022-10-25T05:29:38.383Z,93.64
2022-10-25T05:32:06.047Z,93.38
2022-10-25T05:34:33.670Z,92.76
2022-10-25T05:37:01.200Z,93.10
2022-10-25T05:39:28.611Z,94.62
2022-10-25T05:41:56.065Z,94.28
2022-10-25T05:44:23.543Z,93.81
2022-10-25T05:46:51.818Z,92.77
2022-10-25T05:49:19.504Z,92.78
2022-10-25T05:51:46.907Z,93.47
2022-10-25T05:54:16.214Z,92.87
2022-10-25T05:56:44.170Z,92.16
2022-10-25T05:59:14.531Z,92.13
2022-10-25T06:01:45.775Z,91.58
2022-10-25T06:04:14.991Z,90.54
2022-10-25T06:06:44.985Z,90.11
2022-10-25T06:09:13.511Z,89.04
2022-10-25T06:11:41.518Z,87.84
2022-10-25T06:14:10.881Z,88.41
2022-10-25T06:16:38.685Z,87.70
2022-10-25T06:19:06.618Z,87.38
2022-10-25T06:21:34.120Z,85.78
2022-10-25T06:24:01.593Z,85.32
2022-10-25T06:26:30.865Z,85.04
2022-10-25T06:29:03.210Z,83.27
2022-10-25T06:31:33.723Z,81.13
2022-10-25T06:34:02.362Z,79.81
2022-10-25T06:36:31.406Z,79.47
2022-10-25T06:39:05.808Z,78.94
2022-10-25T06:41:36.875Z,79.59
2022-10-25T06:44:07.137Z,77.99
2022-10-25T06:47:04.350Z,74.80
2022-10-25T06:49:26.439Z,77.83
2022-10-25T06:51:54.099Z,77.87
2022-10-25T06:54:21.526Z,77.84
2022-10-25T06:56:48.936Z,78.88
2022-10-25T06:59:16.432Z,79.19
2022-10-25T07:01:44.225Z,78.61
2022-10-25T07:04:11.778Z,78.39
2022-10-25T07:06:39.745Z,76.19
2022-10-25T07:09:09.399Z,76.50
2022-10-25T07:11:37.402Z,71.92
2022-10-25T07:14:04.984Z,71.37
2022-10-25T07:16:32.761Z,70.89
2022-10-25T07:19:04.674Z,72.89
2022-10-25T07:21:33.754Z,72.52
2022-10-25T07:24:01.403Z,70.98
2022-10-25T07:26:32.470Z,72.90
2022-10-25T07:29:02.766Z,70.99
2022-10-25T07:31:34.768Z,71.25
2022-10-25T07:34:04.997Z,69.08
2022-10-25T07:36:32.681Z,65.17
2022-10-25T07:39:00.835Z,64.65
2022-10-25T07:41:31.340Z,67.75
2022-10-25T07:43:58.862Z,64.04
2022-10-25T07:46:26.502Z,67.23
2022-10-25T07:48:54.043Z,69.28
2022-10-25T07:51:21.579Z,65.82
2022-10-25T07:53:49.956Z,63.43
2022-10-25T07:56:23.248Z,63.25
2022-10-25T07:58:54.397Z,65.15
2022-10-25T08:01:28.585Z,63.55
2022-10-25T08:03:57.065Z,63.88
2022-10-25T08:06:26.031Z,59.90
2022-10-25T08:08:53.664Z,59.57
2022-10-25T08:11:21.222Z,60.77
2022-10-25T08:13:50.752Z,60.35
2022-10-25T08:16:18.768Z,61.05
2022-10-25T08:18:46.292Z,61.85
2022-10-25T08:21:14.684Z,61.52
2022-10-25T08:23:42.140Z,60.30
2022-10-25T08:26:09.736Z,60.44
2022-10-25T08:28:37.117Z,60.68
2022-10-25T08:31:04.823Z,59.35
2022-10-25T08:33:33.890Z,56.95
2022-10-25T08:36:03.077Z,58.22
2022-10-25T08:38:31.007Z,56.67
2022-10-25T08:41:29.953Z,54.69
2022-10-25T08:45:04.099Z,54.57
2022-10-25T08:47:43.375Z,50.48
2022-10-25T08:50:33.246Z,52.16
2022-10-25T08:53:05.979Z,50.41
2022-10-25T08:55:44.489Z,48.58
2022-10-25T08:58:58.267Z,50.15
2022-10-25T09:01:41.350Z,48.56
2022-10-25T09:04:09.751Z,49.47
2022-10-25T09:07:18.243Z,47.13
2022-10-25T09:10:23.463Z,46.80
2022-10-25T09:13:10.525Z,47.79
2022-10-25T09:15:54.748Z,46.92
2022-10-25T09:18:36.703Z,46.70
2022-10-25T09:21:31.761Z,43.61
2022-10-25T09:24:12.327Z,44.03
2022-10-25T09:26:44.540Z,44.19
2022-10-25T09:29:24.493Z,42.91
2022-10-25T09:31:59.378Z,42.96
2022-10-25T09:34:35.641Z,42.86
2022-10-25T09:37:27.104Z,43.47
2022-10-25T09:40:05.023Z,41.71
2022-10-25T09:42:44.606Z,40.19
2022-10-25T09:45:29.237Z,39.09
2022-10-25T09:48:36.468Z,39.58
2022-10-25T09:51:08.128Z,39.48
2022-10-25T09:53:40.775Z,39.63
2022-10-25T09:56:08.729Z,40.08
2022-10-25T09:58:44.975Z,39.80
2022-10-25T10:01:19.108Z,39.21
2022-10-25T10:03:50.227Z,40.25
2022-10-25T10:06:35.982Z,39.63
2022-10-25T10:09:10.810Z,39.01
2022-10-25T10:11:38.615Z,37.55
2022-10-25T10:14:36.546Z,37.93
2022-10-25T10:17:08.088Z,38.16
2022-10-25T10:19:35.521Z,37.07
2022-10-25T10:22:09.801Z,37.24
2022-10-25T10:24:43.593Z,37.25
2022-10-25T10:27:32.705Z,37.25
2022-10-25T10:30:07.459Z,37.54
2022-10-25T10:35:28.591Z,37.78
2022-10-25T10:38:23.066Z,37.35
2022-10-25T10:41:11.904Z,37.39
2022-10-25T10:43:39.367Z,37.01
2022-10-25T10:46:19.922Z,35.97
2022-10-25T10:48:56.082Z,35.77
2022-10-25T10:51:43.978Z,35.05
2022-10-25T10:54:31.362Z,35.66
2022-10-25T10:57:03.288Z,34.43
2022-10-25T10:59:56.620Z,34.12
2022-10-25T11:02:42.803Z,35.14
2022-10-25T11:05:33.924Z,35.86
2022-10-25T11:08:03.539Z,34.36
2022-10-25T11:10:41.849Z,34.57
2022-10-25T11:13:20.768Z,34.07
2022-10-25T11:16:10.155Z,32.79
2022-10-25T11:18:46.091Z,32.87
2022-10-25T11:21:29.131Z,31.77
2022-10-25T11:24:11.215Z,32.27
2022-10-25T11:27:28.077Z,30.68
2022-10-25T11:30:20.453Z,31.53
2022-10-25T11:33:12.765Z,29.78
2022-10-25T11:36:27.439Z,30.30
2022-10-25T11:39:13.053Z,28.91
2022-10-25T11:41:53.770Z,28.32
2022-10-25T11:44:54.715Z,27.78
2022-10-25T11:47:57.882Z,27.25
2022-10-25T11:51:17.317Z,27.26
2022-10-25T11:53:47.320Z,28.08
2022-10-25T11:56:42.002Z,26.87
2022-10-25T11:59:45.588Z,27.56
2022-10-25T12:02:57.479Z,27.33
2022-10-25T12:05:57.232Z,26.94
2022-10-25T12:08:50.727Z,26.82
2022-10-25T12:11:28.574Z,25.72
2022-10-25T12:14:09.380Z,25.57
2022-10-25T12:16:38.335Z,25.22
2022-10-25T12:19:19.475Z,25.05
2022-10-25T12:22:01.936Z,25.46
2022-10-25T12:24:44.547Z,25.55
2022-10-25T12:27:13.379Z,26.05
2022-10-25T12:29:48.276Z,25.24
2022-10-25T12:32:23.646Z,24.58
2022-10-25T12:34:54.354Z,24.42
2022-10-25T12:37:31.588Z,24.63
2022-10-25T12:39:59.304Z,24.06
2022-10-25T12:42:44.603Z,24.99
2022-10-25T12:45:45.965Z,24.35
2022-10-25T12:49:09.370Z,24.15
2022-10-25T12:52:00.885Z,23.94
2022-10-25T12:54:55.959Z,23.33
2022-10-25T12:57:26.583Z,24.05
2022-10-25T13:00:09.914Z,22.85
2022-10-25T13:03:18.563Z,23.44
2022-10-25T13:06:45.082Z,22.81
2022-10-25T13:09:21.027Z,22.69
2022-10-25T13:12:07.849Z,23.71
2022-10-25T13:14:53.800Z,24.04
2022-10-25T13:17:21.217Z,22.49
2022-10-25T13:19:54.606Z,22.43
2022-10-25T13:22:35.998Z,23.42
2022-10-25T13:25:08.801Z,22.98
2022-10-25T13:27:37.095Z,23.07
2022-10-25T13:30:04.745Z,22.62
2022-10-25T13:32:43.568Z,22.56
2022-10-25T13:35:22.806Z,23.08
2022-10-25T13:38:09.606Z,22.29
2022-10-25T13:40:38.603Z,21.83
2022-10-25T13:43:20.879Z,22.20
2022-10-25T13:45:55.703Z,21.80
2022-10-25T13:48:37.245Z,22.10
2022-10-25T13:51:13.006Z,22.22
2022-10-25T13:53:52.632Z,22.65
2022-10-25T13:56:23.917Z,22.60
2022-10-25T13:58:56.561Z,22.39
2022-10-25T14:01:27.077Z,22.06
2022-10-25T14:04:18.318Z,23.58
2022-10-25T14:06:45.885Z,24.01
2022-10-25T14:09:34.352Z,24.27
2022-10-25T14:12:01.764Z,24.67
2022-10-25T14:14:48.080Z,25.01
2022-10-25T14:17:42.092Z,25.63
2022-10-25T14:20:30.930Z,25.27
2022-10-25T14:23:03.339Z,25.67
2022-10-25T14:25:38.315Z,25.58
2022-10-25T14:28:21.229Z,26.27
2022-10-25T14:31:01.132Z,26.08
2022-10-25T14:33:45.980Z,26.59
2022-10-25T14:36:36.993Z,26.75
2022-10-25T14:39:19.880Z,27.58
2022-10-25T14:41:57.416Z,28.32
2022-10-25T14:44:29.649Z,29.84
2022-10-25T14:46:59.743Z,29.54
2022-10-25T14:49:28.812Z,30.92
2022-10-25T14:52:07.298Z,30.52
2022-10-25T14:54:36.027Z,30.73
2022-10-25T14:57:06.970Z,32.17
2022-10-25T14:59:42.717Z,32.96
2022-10-25T15:02:41.195Z,33.52
2022-10-25T15:05:20.816Z,34.74
2022-10-25T15:07:54.003Z,35.85
2022-10-25T15:11:00.728Z,36.39
2022-10-25T15:13:43.856Z,36.26
2022-10-25T15:16:44.162Z,37.45
2022-10-25T15:19:19.340Z,37.52
2022-10-25T15:21:50.541Z,38.02
2022-10-25T15:24:23.317Z,38.61
2022-10-25T15:27:02.043Z,39.76
2022-10-25T15:32:26.444Z,41.12
2022-10-25T15:35:01.099Z,40.98
2022-10-25T15:37:30.599Z,41.30
2022-10-25T15:39:58.284Z,41.66
2022-10-25T15:42:27.100Z,42.35
2022-10-25T15:44:56.086Z,43.61
2022-10-25T15:47:32.972Z,43.03
2022-10-25T15:50:04.187Z,42.76
2022-10-25T15:52:31.627Z,43.14
2022-10-25T15:54:59.126Z,42.91
2022-10-25T15:57:27.443Z,44.31
2022-10-25T15:59:55.052Z,44.44
2022-10-25T16:02:28.488Z,44.45
2022-10-25T16:04:56.087Z,45.66
2022-10-25T16:07:23.685Z,46.05
2022-10-25T16:09:51.135Z,46.17
2022-10-25T16:12:30.789Z,46.48
2022-10-25T16:14:58.511Z,46.53
2022-10-25T16:17:26.507Z,46.54
2022-10-25T16:19:53.934Z,46.78
2022-10-25T16:22:21.379Z,46.75
2022-10-25T16:24:50.035Z,45.80
2022-10-25T16:27:17.438Z,45.86
2022-10-25T16:29:47.030Z,45.76
2022-10-25T16:32:14.550Z,45.67
2022-10-25T16:34:46.000Z,45.74
2022-10-25T16:37:13.433Z,46.26
2022-10-25T16:39:40.931Z,46.50
2022-10-25T16:42:28.299Z,47.34
2022-10-25T16:44:57.047Z,47.03
2022-10-25T16:47:24.745Z,46.99
2022-10-25T16:49:52.307Z,46.50
2022-10-25T16:52:20.642Z,46.46
2022-10-25T16:54:49.173Z,46.91
2022-10-25T16:57:16.898Z,47.81
2022-10-25T16:59:44.524Z,48.32
2022-10-25T17:02:24.879Z,49.16
2022-10-25T17:04:53.701Z,49.06
2022-10-25T17:07:21.181Z,49.01
2022-10-25T17:09:48.728Z,49.06
2022-10-25T17:12:16.139Z,48.95
2022-10-25T17:14:44.008Z,48.75
2022-10-25T17:17:11.678Z,48.39
2022-10-25T17:19:39.170Z,49.74
2022-10-25T17:22:07.355Z,50.00
2022-10-25T17:24:37.902Z,49.61
2022-10-25T17:27:06.795Z,49.17
2022-10-25T17:29:35.498Z,49.26
2022-10-25T17:32:04.948Z,49.40
2022-10-25T17:34:32.996Z,49.36
2022-10-25T17:37:02.329Z,49.57
2022-10-25T17:39:31.516Z,49.83
2022-10-25T17:41:59.075Z,49.85
2022-10-25T17:44:26.636Z,50.17
2022-10-25T17:46:56.441Z,50.04
2022-10-25T17:49:27.099Z,51.23
2022-10-25T17:51:54.637Z,52.00
2022-10-25T17:54:22.150Z,51.95
2022-10-25T17:56:49.742Z,51.95
2022-10-25T17:59:17.355Z,51.73
2022-10-25T18:01:49.131Z,50.63
2022-10-25T18:04:16.978Z,50.38
2022-10-25T18:06:45.830Z,50.37
2022-10-25T18:09:19.297Z,50.25
2022-10-25T18:11:49.743Z,50.16
2022-10-25T18:14:20.083Z,50.19
2022-10-25T18:16:48.034Z,51.25
2022-10-25T18:19:20.043Z,53.35
2022-10-25T18:21:47.806Z,52.49
2022-10-25T18:24:15.557Z,53.69
2022-10-25T18:26:48.639Z,53.99
2022-10-25T18:29:18.078Z,54.48
2022-10-25T18:31:45.756Z,54.82
2022-10-25T18:34:14.496Z,55.59
2022-10-25T18:36:43.681Z,56.40
2022-10-25T18:39:13.590Z,56.90
2022-10-25T18:41:42.634Z,56.12
2022-10-25T18:44:15.157Z,56.87
2022-10-25T18:46:44.014Z,56.93
2022-10-25T18:49:16.504Z,57.29
2022-10-25T18:51:44.999Z,57.51
2022-10-25T18:54:12.864Z,57.61
2022-10-25T18:56:41.923Z,58.36
2022-10-25T18:59:10.824Z,59.04
2022-10-25T19:01:39.918Z,59.09
2022-10-25T19:04:07.655Z,58.77
2022-10-25T19:06:36.428Z,58.89
2022-10-25T19:09:04.839Z,59.58
2022-10-25T19:11:33.937Z,59.80
2022-10-25T19:14:03.242Z,59.93
2022-10-25T19:16:30.866Z,60.02
2022-10-25T19:19:04.627Z,59.91
2022-10-25T19:21:32.309Z,60.61
2022-10-25T19:24:00.039Z,61.12
2022-10-25T19:26:27.674Z,60.89
2022-10-25T19:29:00.348Z,61.11
2022-10-25T19:31:29.618Z,62.01
2022-10-25T19:34:00.627Z,62.02
2022-10-25T19:36:28.616Z,61.59
2022-10-25T19:38:56.449Z,62.06
2022-10-25T19:41:26.025Z,61.98
2022-10-25T19:43:56.595Z,61.82
2022-10-25T19:46:24.362Z,61.57
2022-10-25T19:48:51.907Z,61.47
2022-10-25T19:51:21.164Z,61.95
2022-10-25T19:53:50.385Z,62.37
2022-10-25T19:56:21.375Z,63.10
2022-10-25T19:58:50.598Z,62.10
2022-10-25T20:01:25.210Z,62.25
2022-10-25T20:03:57.954Z,62.29
2022-10-25T20:06:32.083Z,62.56
2022-10-25T20:09:01.442Z,63.03
2022-10-25T20:11:29.665Z,62.74
2022-10-25T20:14:01.883Z,62.70
2022-10-25T20:16:32.268Z,62.13
2022-10-25T20:19:02.227Z,62.77
2022-10-25T20:21:35.990Z,63.11
2022-10-25T20:24:08.166Z,62.67
2022-10-25T20:26:41.261Z,62.84
2022-10-25T20:29:21.078Z,63.40
2022-10-25T20:31:51.180Z,64.64
2022-10-25T20:34:20.137Z,62.45
2022-10-25T20:36:48.991Z,62.94
2022-10-25T20:39:16.590Z,63.38
2022-10-25T20:41:44.258Z,63.93
2022-10-25T20:44:12.143Z,64.41
2022-10-25T20:46:39.693Z,64.75
2022-10-25T20:49:07.549Z,64.36
2022-10-25T20:51:35.451Z,64.50
2022-10-25T20:54:09.335Z,64.82
2022-10-25T20:56:37.388Z,66.08
2022-10-25T20:59:05.331Z,66.47
2022-10-25T21:01:33.204Z,66.44
2022-10-25T21:04:00.800Z,66.21
2022-10-25T21:06:28.310Z,66.01
2022-10-25T21:08:55.794Z,66.03
2022-10-25T21:11:23.265Z,66.18
2022-10-25T21:13:50.927Z,66.49
2022-10-25T21:16:18.489Z,65.17
2022-10-25T21:18:45.947Z,65.88
2022-10-25T21:21:19.041Z,66.52
2022-10-25T21:23:56.599Z,67.00
2022-10-25T21:26:24.756Z,67.46
2022-10-25T21:28:52.260Z,67.21
2022-10-25T21:31:20.290Z,67.37
2022-10-25T21:33:50.218Z,67.62
2022-10-25T21:36:20.242Z,68.36
2022-10-25T21:38:48.001Z,68.52
2022-10-25T21:41:26.702Z,68.45
2022-10-25T21:43:55.711Z,68.86
2022-10-25T21:46:24.830Z,68.80
2022-10-25T21:48:52.519Z,69.42
2022-10-25T21:51:21.936Z,69.97
2022-10-25T21:53:49.519Z,70.02
2022-10-25T21:56:20.146Z,70.27
2022-10-25T21:58:51.445Z,70.56
2022-10-25T22:01:24.903Z,71.12
2022-10-25T22:03:55.660Z,70.40
2022-10-25T22:06:25.402Z,70.53
2022-10-25T22:08:55.574Z,69.73
2022-10-25T22:11:27.014Z,70.44
2022-10-25T22:14:00.179Z,71.21
2022-10-25T22:16:28.487Z,70.93
2022-10-25T22:19:05.531Z,70.65
2022-10-25T22:21:37.665Z,72.27
2022-10-25T22:24:08.501Z,72.24
2022-10-25T22:26:39.243Z,72.46
2022-10-25T22:29:07.538Z,72.84
2022-10-25T22:31:35.343Z,74.03
2022-10-25T22:34:05.934Z,75.45
2022-10-25T22:36:37.302Z,76.47
2022-10-25T22:39:06.363Z,76.52
2022-10-25T22:41:34.797Z,78.20
2022-10-25T22:44:02.803Z,78.42
2022-10-25T22:46:35.537Z,78.97
2022-10-25T22:49:09.103Z,79.61
2022-10-25T22:51:38.151Z,79.47
2022-10-25T22:54:06.112Z,80.02
2022-10-25T22:56:34.380Z,79.71
2022-10-25T22:59:05.142Z,79.37
2022-10-25T23:01:36.394Z,79.04
2022-10-25T23:04:07.923Z,79.49
2022-10-25T23:06:38.732Z,80.31
2022-10-25T23:09:09.693Z,81.39
2022-10-25T23:11:40.387Z,81.24
2022-10-25T23:14:13.440Z,81.15
2022-10-25T23:16:44.507Z,81.06
2022-10-25T23:19:11.940Z,81.12
2022-10-25T23:21:39.361Z,80.60
2022-10-25T23:24:07.076Z,80.36
2022-10-25T23:26:36.660Z,78.74
2022-10-25T23:29:05.184Z,78.28
2022-10-25T23:31:33.074Z,79.31
2022-10-25T23:34:01.393Z,80.74
2022-10-25T23:36:37.750Z,81.25
2022-10-25T23:39:08.048Z,81.11
2022-10-25T23:41:35.861Z,81.74
2022-10-25T23:44:03.927Z,81.02
2022-10-25T23:46:31.443Z,80.70
2022-10-25T23:48:59.021Z,80.01
2022-10-25T23:51:26.619Z,79.85
2022-10-25T23:53:54.070Z,80.48
2022-10-25T23:56:21.617Z,81.43
2022-10-25T23:58:53.677Z,81.74
